sensor_id;sensor_type;location;lat;lon;timestamp;temperature;humidity
23869;DHT22;12115;47.128;15.422;2023-10-08T00:01:55;13.90;99.90
23869;DHT22;12115;47.128;15.422;2023-10-08T00:04:22;13.90;99.90
23869;DHT22;12115;47.128;15.422;2023-10-08T00:06:50;13.80;99.90
23869;DHT22;12115;47.128;15.422;2023-10-08T00:09:19;13.80;99.90
23869;DHT22;12115;47.128;15.422;2023-10-08T00:11:47;13.80;99.90
23869;DHT22;12115;47.128;15.422;2023-10-08T00:14:21;13.70;99.90
23869;DHT22;12115;47.128;15.422;2023-10-08T00:16:48;13.80;99.90
23869;DHT22;12115;47.128;15.422;2023-10-08T00:19:17;13.70;99.90
23869;DHT22;12115;47.128;15.422;2023-10-08T00:21:45;13.70;99.90
23869;DHT22;12115;47.128;15.422;2023-10-08T00:24:14;13.60;99.90
23869;DHT22;12115;47.128;15.422;2023-10-08T00:26:42;13.60;99.90
23869;DHT22;12115;47.128;15.422;2023-10-08T00:29:09;13.50;99.90
23869;DHT22;12115;47.128;15.422;2023-10-08T00:31:43;13.50;99.90
23869;DHT22;12115;47.128;15.422;2023-10-08T00:34:12;13.50;99.90
23869;DHT22;12115;47.128;15.422;2023-10-08T00:36:41;13.50;99.90
23869;DHT22;12115;47.128;15.422;2023-10-08T00:39:11;13.50;99.90
23869;DHT22;12115;47.128;15.422;2023-10-08T00:41:44;13.50;99.90
23869;DHT22;12115;47.128;15.422;2023-10-08T00:44:13;13.40;99.90
23869;DHT22;12115;47.128;15.422;2023-10-08T00:46:43;13.40;99.90
23869;DHT22;12115;47.128;15.422;2023-10-08T00:49:23;13.30;99.90
23869;DHT22;12115;47.128;15.422;2023-10-08T00:52:06;13.30;99.90
23869;DHT22;12115;47.128;15.422;2023-10-08T00:54:35;13.30;99.90
23869;DHT22;12115;47.128;15.422;2023-10-08T00:57:20;13.30;99.90
23869;DHT22;12115;47.128;15.422;2023-10-08T00:59:48;13.20;99.90
23869;DHT22;12115;47.128;15.422;2023-10-08T01:02:20;13.20;99.90
23869;DHT22;12115;47.128;15.422;2023-10-08T01:04:51;13.20;99.90
23869;DHT22;12115;47.128;15.422;2023-10-08T01:07:18;13.20;99.90
23869;DHT22;12115;47.128;15.422;2023-10-08T01:09:45;13.20;99.90
23869;DHT22;12115;47.128;15.422;2023-10-08T01:12:26;13.20;99.90
23869;DHT22;12115;47.128;15.422;2023-10-08T01:14:59;13.10;99.90
23869;DHT22;12115;47.128;15.422;2023-10-08T01:18:02;13.10;99.90
23869;DHT22;12115;47.128;15.422;2023-10-08T01:20:41;13.00;99.90
23869;DHT22;12115;47.128;15.422;2023-10-08T01:23:14;13.00;99.90
23869;DHT22;12115;47.128;15.422;2023-10-08T01:26:23;13.00;99.90
23869;DHT22;12115;47.128;15.422;2023-10-08T01:28:50;13.00;99.90
23869;DHT22;12115;47.128;15.422;2023-10-08T01:31:19;13.00;99.90
23869;DHT22;12115;47.128;15.422;2023-10-08T01:33:46;13.00;99.90
23869;DHT22;12115;47.128;15.422;2023-10-08T01:36:26;13.00;99.90
23869;DHT22;12115;47.128;15.422;2023-10-08T01:38:53;12.90;99.90
23869;DHT22;12115;47.128;15.422;2023-10-08T01:41:21;12.90;99.90
23869;DHT22;12115;47.128;15.422;2023-10-08T01:43:58;12.90;99.90
23869;DHT22;12115;47.128;15.422;2023-10-08T01:46:26;12.90;99.90
23869;DHT22;12115;47.128;15.422;2023-10-08T01:48:54;12.90;99.90
23869;DHT22;12115;47.128;15.422;2023-10-08T01:58:37;12.80;99.90
23869;DHT22;12115;47.128;15.422;2023-10-08T02:01:05;12.80;99.90
23869;DHT22;12115;47.128;15.422;2023-10-08T02:03:38;12.70;99.90
23869;DHT22;12115;47.128;15.422;2023-10-08T02:06:06;12.70;99.90
23869;DHT22;12115;47.128;15.422;2023-10-08T02:08:35;12.70;99.90
23869;DHT22;12115;47.128;15.422;2023-10-08T02:11:03;12.70;99.90
23869;DHT22;12115;47.128;15.422;2023-10-08T02:13:31;12.70;99.90
23869;DHT22;12115;47.128;15.422;2023-10-08T02:15:58;12.60;99.90
23869;DHT22;12115;47.128;15.422;2023-10-08T02:18:25;12.60;99.90
23869;DHT22;12115;47.128;15.422;2023-10-08T02:20:52;12.60;99.90
23869;DHT22;12115;47.128;15.422;2023-10-08T02:23:20;12.50;99.90
23869;DHT22;12115;47.128;15.422;2023-10-08T02:25:47;12.50;99.90
23869;DHT22;12115;47.128;15.422;2023-10-08T02:28:15;12.50;99.90
23869;DHT22;12115;47.128;15.422;2023-10-08T02:30:42;12.50;99.90
23869;DHT22;12115;47.128;15.422;2023-10-08T02:33:22;12.50;99.90
23869;DHT22;12115;47.128;15.422;2023-10-08T02:37:05;12.40;99.90
23869;DHT22;12115;47.128;15.422;2023-10-08T02:41:03;12.40;99.90
23869;DHT22;12115;47.128;15.422;2023-10-08T02:44:40;12.40;99.90
23869;DHT22;12115;47.128;15.422;2023-10-08T02:47:11;12.30;99.90
23869;DHT22;12115;47.128;15.422;2023-10-08T02:49:45;12.30;99.90
23869;DHT22;12115;47.128;15.422;2023-10-08T02:52:15;12.30;99.90
23869;DHT22;12115;47.128;15.422;2023-10-08T02:54:42;12.30;99.90
23869;DHT22;12115;47.128;15.422;2023-10-08T02:57:10;12.30;99.90
23869;DHT22;12115;47.128;15.422;2023-10-08T02:59:41;12.30;99.90
23869;DHT22;12115;47.128;15.422;2023-10-08T03:02:13;12.20;99.90
23869;DHT22;12115;47.128;15.422;2023-10-08T03:04:49;12.20;99.90
23869;DHT22;12115;47.128;15.422;2023-10-08T03:07:19;12.20;99.90
23869;DHT22;12115;47.128;15.422;2023-10-08T03:09:54;12.30;99.90
23869;DHT22;12115;47.128;15.422;2023-10-08T03:12:33;12.20;99.90
23869;DHT22;12115;47.128;15.422;2023-10-08T03:23:09;12.20;99.90
23869;DHT22;12115;47.128;15.422;2023-10-08T03:25:53;12.20;99.90
23869;DHT22;12115;47.128;15.422;2023-10-08T03:28:28;12.20;99.90
23869;DHT22;12115;47.128;15.422;2023-10-08T03:30:56;12.20;99.90
23869;DHT22;12115;47.128;15.422;2023-10-08T03:33:33;12.20;99.90
23869;DHT22;12115;47.128;15.422;2023-10-08T03:36:02;12.20;99.90
23869;DHT22;12115;47.128;15.422;2023-10-08T03:38:37;12.20;99.90
23869;DHT22;12115;47.128;15.422;2023-10-08T03:41:23;12.20;99.90
23869;DHT22;12115;47.128;15.422;2023-10-08T03:43:57;12.20;99.90
23869;DHT22;12115;47.128;15.422;2023-10-08T03:46:39;12.20;99.90
23869;DHT22;12115;47.128;15.422;2023-10-08T03:49:10;12.20;99.90
23869;DHT22;12115;47.128;15.422;2023-10-08T03:51:49;12.20;99.90
23869;DHT22;12115;47.128;15.422;2023-10-08T03:54:20;12.20;99.90
23869;DHT22;12115;47.128;15.422;2023-10-08T03:56:56;12.20;99.90
23869;DHT22;12115;47.128;15.422;2023-10-08T03:59:24;12.10;99.90
23869;DHT22;12115;47.128;15.422;2023-10-08T04:02:07;12.10;99.90
23869;DHT22;12115;47.128;15.422;2023-10-08T04:04:42;12.10;99.90
23869;DHT22;12115;47.128;15.422;2023-10-08T04:07:21;12.10;99.90
23869;DHT22;12115;47.128;15.422;2023-10-08T04:10:11;12.10;99.90
23869;DHT22;12115;47.128;15.422;2023-10-08T04:12:38;12.10;99.90
23869;DHT22;12115;47.128;15.422;2023-10-08T04:15:17;12.10;99.90
23869;DHT22;12115;47.128;15.422;2023-10-08T04:17:45;12.10;99.90
23869;DHT22;12115;47.128;15.422;2023-10-08T04:20:18;12.10;99.90
23869;DHT22;12115;47.128;15.422;2023-10-08T04:23:01;12.10;99.90
23869;DHT22;12115;47.128;15.422;2023-10-08T04:25:29;12.10;99.90
23869;DHT22;12115;47.128;15.422;2023-10-08T04:27:56;12.00;99.90
23869;DHT22;12115;47.128;15.422;2023-10-08T04:30:25;12.10;99.90
23869;DHT22;12115;47.128;15.422;2023-10-08T04:33:03;12.10;99.90
23869;DHT22;12115;47.128;15.422;2023-10-08T04:35:34;12.10;99.90
23869;DHT22;12115;47.128;15.422;2023-10-08T04:38:03;12.10;99.90
23869;DHT22;12115;47.128;15.422;2023-10-08T04:40:31;12.10;99.90
23869;DHT22;12115;47.128;15.422;2023-10-08T04:43:08;12.20;99.90
23869;DHT22;12115;47.128;15.422;2023-10-08T04:45:37;12.10;99.90
23869;DHT22;12115;47.128;15.422;2023-10-08T04:48:04;12.20;99.90
23869;DHT22;12115;47.128;15.422;2023-10-08T04:50:38;12.20;99.90
23869;DHT22;12115;47.128;15.422;2023-10-08T04:53:05;12.20;99.90
23869;DHT22;12115;47.128;15.422;2023-10-08T04:55:35;12.20;99.90
23869;DHT22;12115;47.128;15.422;2023-10-08T04:58:02;12.20;99.90
23869;DHT22;12115;47.128;15.422;2023-10-08T05:00:40;12.20;99.90
23869;DHT22;12115;47.128;15.422;2023-10-08T05:03:20;12.20;99.90
23869;DHT22;12115;47.128;15.422;2023-10-08T05:05:50;12.20;99.90
23869;DHT22;12115;47.128;15.422;2023-10-08T05:08:37;12.20;99.90
23869;DHT22;12115;47.128;15.422;2023-10-08T05:11:25;12.20;99.90
23869;DHT22;12115;47.128;15.422;2023-10-08T05:14:04;12.20;99.90
23869;DHT22;12115;47.128;15.422;2023-10-08T05:16:43;12.20;99.90
23869;DHT22;12115;47.128;15.422;2023-10-08T05:19:16;12.20;99.90
23869;DHT22;12115;47.128;15.422;2023-10-08T05:22:13;12.30;99.90
23869;DHT22;12115;47.128;15.422;2023-10-08T05:24:56;12.20;99.90
23869;DHT22;12115;47.128;15.422;2023-10-08T05:27:43;12.30;99.90
23869;DHT22;12115;47.128;15.422;2023-10-08T05:30:16;12.30;99.90
23869;DHT22;12115;47.128;15.422;2023-10-08T05:32:52;12.30;99.90
23869;DHT22;12115;47.128;15.422;2023-10-08T05:35:41;12.30;99.90
23869;DHT22;12115;47.128;15.422;2023-10-08T05:38:09;12.30;99.90
23869;DHT22;12115;47.128;15.422;2023-10-08T05:40:43;12.30;99.90
23869;DHT22;12115;47.128;15.422;2023-10-08T05:43:30;12.40;99.90
23869;DHT22;12115;47.128;15.422;2023-10-08T05:46:08;12.40;99.90
23869;DHT22;12115;47.128;15.422;2023-10-08T05:48:56;12.40;99.90
23869;DHT22;12115;47.128;15.422;2023-10-08T05:51:30;12.40;99.90
23869;DHT22;12115;47.128;15.422;2023-10-08T05:57:07;12.40;99.90
23869;DHT22;12115;47.128;15.422;2023-10-08T05:59:38;12.40;99.90
23869;DHT22;12115;47.128;15.422;2023-10-08T06:02:20;12.40;99.90
23869;DHT22;12115;47.128;15.422;2023-10-08T06:05:16;12.40;99.90
23869;DHT22;12115;47.128;15.422;2023-10-08T06:07:51;12.50;99.90
23869;DHT22;12115;47.128;15.422;2023-10-08T06:10:37;12.50;99.90
23869;DHT22;12115;47.128;15.422;2023-10-08T06:15:57;12.50;99.90
23869;DHT22;12115;47.128;15.422;2023-10-08T06:18:25;12.50;99.90
23869;DHT22;12115;47.128;15.422;2023-10-08T06:20:56;12.60;99.90
23869;DHT22;12115;47.128;15.422;2023-10-08T06:23:27;12.50;99.90
23869;DHT22;12115;47.128;15.422;2023-10-08T06:25:55;12.60;99.90
23869;DHT22;12115;47.128;15.422;2023-10-08T06:28:38;12.60;99.90
23869;DHT22;12115;47.128;15.422;2023-10-08T06:31:06;12.60;99.90
23869;DHT22;12115;47.128;15.422;2023-10-08T06:33:38;12.60;99.90
23869;DHT22;12115;47.128;15.422;2023-10-08T06:36:08;12.60;99.90
23869;DHT22;12115;47.128;15.422;2023-10-08T06:38:39;12.60;99.90
23869;DHT22;12115;47.128;15.422;2023-10-08T06:41:07;12.60;99.90
23869;DHT22;12115;47.128;15.422;2023-10-08T06:44:00;12.60;99.90
23869;DHT22;12115;47.128;15.422;2023-10-08T06:46:30;12.70;99.90
23869;DHT22;12115;47.128;15.422;2023-10-08T06:49:06;12.70;99.90
23869;DHT22;12115;47.128;15.422;2023-10-08T06:51:39;12.70;99.90
23869;DHT22;12115;47.128;15.422;2023-10-08T06:54:09;12.70;99.90
23869;DHT22;12115;47.128;15.422;2023-10-08T06:56:41;12.70;99.90
23869;DHT22;12115;47.128;15.422;2023-10-08T06:59:13;12.80;99.90
23869;DHT22;12115;47.128;15.422;2023-10-08T07:01:41;12.70;99.90
23869;DHT22;12115;47.128;15.422;2023-10-08T07:04:13;12.70;99.90
23869;DHT22;12115;47.128;15.422;2023-10-08T07:06:41;12.80;99.90
23869;DHT22;12115;47.128;15.422;2023-10-08T07:09:10;12.80;99.90
23869;DHT22;12115;47.128;15.422;2023-10-08T07:11:56;12.90;99.90
23869;DHT22;12115;47.128;15.422;2023-10-08T07:14:25;12.90;99.90
23869;DHT22;12115;47.128;15.422;2023-10-08T07:16:55;12.90;99.90
23869;DHT22;12115;47.128;15.422;2023-10-08T07:19:26;12.90;99.90
23869;DHT22;12115;47.128;15.422;2023-10-08T07:22:04;12.90;99.90
23869;DHT22;12115;47.128;15.422;2023-10-08T07:24:46;13.00;99.90
23869;DHT22;12115;47.128;15.422;2023-10-08T07:27:21;13.00;99.90
23869;DHT22;12115;47.128;15.422;2023-10-08T07:29:49;13.00;99.90
23869;DHT22;12115;47.128;15.422;2023-10-08T07:32:17;13.00;99.90
23869;DHT22;12115;47.128;15.422;2023-10-08T07:34:46;13.10;99.90
23869;DHT22;12115;47.128;15.422;2023-10-08T07:37:13;13.10;99.90
23869;DHT22;12115;47.128;15.422;2023-10-08T07:39:40;13.10;99.90
23869;DHT22;12115;47.128;15.422;2023-10-08T07:42:14;13.10;99.90
23869;DHT22;12115;47.128;15.422;2023-10-08T07:44:41;13.20;99.90
23869;DHT22;12115;47.128;15.422;2023-10-08T07:47:08;13.20;99.90
23869;DHT22;12115;47.128;15.422;2023-10-08T07:49:40;13.20;99.90
23869;DHT22;12115;47.128;15.422;2023-10-08T07:52:10;13.30;99.90
23869;DHT22;12115;47.128;15.422;2023-10-08T07:54:43;13.30;99.90
23869;DHT22;12115;47.128;15.422;2023-10-08T07:57:10;13.30;99.90
23869;DHT22;12115;47.128;15.422;2023-10-08T07:59:45;13.30;99.90
23869;DHT22;12115;47.128;15.422;2023-10-08T08:02:16;13.40;99.90
23869;DHT22;12115;47.128;15.422;2023-10-08T08:04:45;13.40;99.90
23869;DHT22;12115;47.128;15.422;2023-10-08T08:07:13;13.40;99.90
23869;DHT22;12115;47.128;15.422;2023-10-08T08:09:43;13.50;99.90
23869;DHT22;12115;47.128;15.422;2023-10-08T08:12:18;13.50;99.90
23869;DHT22;12115;47.128;15.422;2023-10-08T08:14:46;13.50;99.90
23869;DHT22;12115;47.128;15.422;2023-10-08T08:17:14;13.60;99.90
23869;DHT22;12115;47.128;15.422;2023-10-08T08:19:45;13.60;99.90
23869;DHT22;12115;47.128;15.422;2023-10-08T08:22:20;13.70;99.90
23869;DHT22;12115;47.128;15.422;2023-10-08T08:24:51;13.70;99.90
23869;DHT22;12115;47.128;15.422;2023-10-08T08:27:43;13.70;99.90
23869;DHT22;12115;47.128;15.422;2023-10-08T08:30:16;13.70;99.90
23869;DHT22;12115;47.128;15.422;2023-10-08T08:32:44;13.80;99.90
23869;DHT22;12115;47.128;15.422;2023-10-08T08:35:13;13.80;99.90
23869;DHT22;12115;47.128;15.422;2023-10-08T08:37:43;13.90;99.90
23869;DHT22;12115;47.128;15.422;2023-10-08T08:40:13;13.90;99.90
23869;DHT22;12115;47.128;15.422;2023-10-08T08:42:48;13.90;99.90
23869;DHT22;12115;47.128;15.422;2023-10-08T08:45:20;14.00;99.90
23869;DHT22;12115;47.128;15.422;2023-10-08T08:47:47;14.00;99.90
23869;DHT22;12115;47.128;15.422;2023-10-08T08:50:15;14.10;99.90
23869;DHT22;12115;47.128;15.422;2023-10-08T08:52:44;14.10;99.90
23869;DHT22;12115;47.128;15.422;2023-10-08T08:55:13;14.20;99.90
23869;DHT22;12115;47.128;15.422;2023-10-08T08:57:46;14.30;99.90
23869;DHT22;12115;47.128;15.422;2023-10-08T09:00:14;14.30;99.90
23869;DHT22;12115;47.128;15.422;2023-10-08T09:02:41;14.30;99.90
23869;DHT22;12115;47.128;15.422;2023-10-08T09:05:08;14.40;99.90
23869;DHT22;12115;47.128;15.422;2023-10-08T09:08:04;14.50;99.90
23869;DHT22;12115;47.128;15.422;2023-10-08T09:10:35;14.50;99.90
23869;DHT22;12115;47.128;15.422;2023-10-08T09:13:22;14.60;99.90
23869;DHT22;12115;47.128;15.422;2023-10-08T09:15:52;14.60;99.90
23869;DHT22;12115;47.128;15.422;2023-10-08T09:18:25;14.70;99.90
23869;DHT22;12115;47.128;15.422;2023-10-08T09:20:54;14.80;99.90
23869;DHT22;12115;47.128;15.422;2023-10-08T09:23:22;14.90;99.90
23869;DHT22;12115;47.128;15.422;2023-10-08T09:25:51;14.90;99.90
23869;DHT22;12115;47.128;15.422;2023-10-08T09:28:26;15.00;99.90
23869;DHT22;12115;47.128;15.422;2023-10-08T09:30:53;15.00;99.90
23869;DHT22;12115;47.128;15.422;2023-10-08T09:33:22;15.10;99.90
23869;DHT22;12115;47.128;15.422;2023-10-08T09:35:49;15.10;99.90
23869;DHT22;12115;47.128;15.422;2023-10-08T09:38:18;15.20;99.90
23869;DHT22;12115;47.128;15.422;2023-10-08T09:40:50;15.30;99.90
23869;DHT22;12115;47.128;15.422;2023-10-08T09:43:20;15.40;99.90
23869;DHT22;12115;47.128;15.422;2023-10-08T09:45:50;15.40;99.90
23869;DHT22;12115;47.128;15.422;2023-10-08T09:48:18;15.50;99.90
23869;DHT22;12115;47.128;15.422;2023-10-08T09:50:47;15.60;99.90
23869;DHT22;12115;47.128;15.422;2023-10-08T09:53:14;15.70;99.90
23869;DHT22;12115;47.128;15.422;2023-10-08T09:55:56;15.80;99.90
23869;DHT22;12115;47.128;15.422;2023-10-08T09:58:23;15.90;99.90
23869;DHT22;12115;47.128;15.422;2023-10-08T10:00:52;16.00;99.90
23869;DHT22;12115;47.128;15.422;2023-10-08T10:03:25;16.10;99.90
23869;DHT22;12115;47.128;15.422;2023-10-08T10:05:54;16.20;99.90
23869;DHT22;12115;47.128;15.422;2023-10-08T10:08:25;16.30;99.90
23869;DHT22;12115;47.128;15.422;2023-10-08T10:10:59;16.30;99.90
23869;DHT22;12115;47.128;15.422;2023-10-08T10:13:43;16.50;99.90
23869;DHT22;12115;47.128;15.422;2023-10-08T10:16:18;16.50;99.90
23869;DHT22;12115;47.128;15.422;2023-10-08T10:18:46;16.60;99.90
23869;DHT22;12115;47.128;15.422;2023-10-08T10:31:42;17.10;99.90
23869;DHT22;12115;47.128;15.422;2023-10-08T10:34:38;17.20;99.90
23869;DHT22;12115;47.128;15.422;2023-10-08T10:37:05;17.30;99.90
23869;DHT22;12115;47.128;15.422;2023-10-08T10:39:53;17.40;99.90
23869;DHT22;12115;47.128;15.422;2023-10-08T10:42:22;17.50;99.90
23869;DHT22;12115;47.128;15.422;2023-10-08T10:44:49;17.60;99.90
23869;DHT22;12115;47.128;15.422;2023-10-08T10:47:17;17.60;99.90
23869;DHT22;12115;47.128;15.422;2023-10-08T10:49:45;17.70;99.90
23869;DHT22;12115;47.128;15.422;2023-10-08T10:52:28;17.80;99.90
23869;DHT22;12115;47.128;15.422;2023-10-08T10:55:14;17.90;99.90
23869;DHT22;12115;47.128;15.422;2023-10-08T10:57:46;18.00;99.90
23869;DHT22;12115;47.128;15.422;2023-10-08T11:00:22;18.20;99.90
23869;DHT22;12115;47.128;15.422;2023-10-08T11:02:59;18.20;99.90
23869;DHT22;12115;47.128;15.422;2023-10-08T11:05:30;18.30;99.90
23869;DHT22;12115;47.128;15.422;2023-10-08T11:07:58;18.40;99.90
23869;DHT22;12115;47.128;15.422;2023-10-08T11:10:31;18.50;99.90
23869;DHT22;12115;47.128;15.422;2023-10-08T11:12:59;18.50;99.90
23869;DHT22;12115;47.128;15.422;2023-10-08T11:15:28;18.60;99.90
23869;DHT22;12115;47.128;15.422;2023-10-08T11:18:09;18.70;99.90
23869;DHT22;12115;47.128;15.422;2023-10-08T11:20:36;18.80;99.90
23869;DHT22;12115;47.128;15.422;2023-10-08T11:23:06;18.80;99.90
23869;DHT22;12115;47.128;15.422;2023-10-08T11:25:55;19.00;99.90
23869;DHT22;12115;47.128;15.422;2023-10-08T11:28:26;19.10;99.90
23869;DHT22;12115;47.128;15.422;2023-10-08T11:30:54;19.20;99.90
23869;DHT22;12115;47.128;15.422;2023-10-08T11:33:24;19.30;99.90
23869;DHT22;12115;47.128;15.422;2023-10-08T11:35:57;19.30;99.90
23869;DHT22;12115;47.128;15.422;2023-10-08T11:38:37;19.40;99.90
23869;DHT22;12115;47.128;15.422;2023-10-08T11:41:13;19.50;99.90
23869;DHT22;12115;47.128;15.422;2023-10-08T11:43:50;19.50;99.90
23869;DHT22;12115;47.128;15.422;2023-10-08T11:46:21;19.50;99.90
23869;DHT22;12115;47.128;15.422;2023-10-08T11:48:48;19.50;99.90
23869;DHT22;12115;47.128;15.422;2023-10-08T11:51:17;19.50;99.90
23869;DHT22;12115;47.128;15.422;2023-10-08T11:53:44;19.60;99.90
23869;DHT22;12115;47.128;15.422;2023-10-08T11:56:11;19.60;99.90
23869;DHT22;12115;47.128;15.422;2023-10-08T11:58:40;19.60;99.90
23869;DHT22;12115;47.128;15.422;2023-10-08T12:01:11;19.70;99.90
23869;DHT22;12115;47.128;15.422;2023-10-08T12:03:42;19.70;99.90
23869;DHT22;12115;47.128;15.422;2023-10-08T12:06:12;19.70;99.90
23869;DHT22;12115;47.128;15.422;2023-10-08T12:08:42;19.70;99.90
23869;DHT22;12115;47.128;15.422;2023-10-08T12:11:15;19.70;99.90
23869;DHT22;12115;47.128;15.422;2023-10-08T12:13:42;19.80;99.90
23869;DHT22;12115;47.128;15.422;2023-10-08T12:16:15;19.80;99.90
23869;DHT22;12115;47.128;15.422;2023-10-08T12:18:45;19.80;99.90
23869;DHT22;12115;47.128;15.422;2023-10-08T12:21:15;19.80;99.90
23869;DHT22;12115;47.128;15.422;2023-10-08T12:23:44;19.80;99.90
23869;DHT22;12115;47.128;15.422;2023-10-08T12:26:13;19.80;99.90
23869;DHT22;12115;47.128;15.422;2023-10-08T12:28:45;19.80;99.90
23869;DHT22;12115;47.128;15.422;2023-10-08T12:31:18;19.80;99.90
23869;DHT22;12115;47.128;15.422;2023-10-08T12:33:55;19.90;99.90
23869;DHT22;12115;47.128;15.422;2023-10-08T12:36:27;19.90;99.90
23869;DHT22;12115;47.128;15.422;2023-10-08T12:38:59;19.90;99.90
23869;DHT22;12115;47.128;15.422;2023-10-08T12:41:27;19.90;99.90
23869;DHT22;12115;47.128;15.422;2023-10-08T12:43:54;19.90;99.90
23869;DHT22;12115;47.128;15.422;2023-10-08T12:46:22;19.90;99.90
23869;DHT22;12115;47.128;15.422;2023-10-08T12:48:53;19.80;99.90
23869;DHT22;12115;47.128;15.422;2023-10-08T12:51:22;19.80;99.90
23869;DHT22;12115;47.128;15.422;2023-10-08T12:53:55;19.80;99.90
23869;DHT22;12115;47.128;15.422;2023-10-08T12:56:26;19.80;99.90
23869;DHT22;12115;47.128;15.422;2023-10-08T12:59:02;19.80;99.90
23869;DHT22;12115;47.128;15.422;2023-10-08T13:01:42;19.80;99.90
23869;DHT22;12115;47.128;15.422;2023-10-08T13:04:11;19.80;99.90
23869;DHT22;12115;47.128;15.422;2023-10-08T13:06:49;19.80;99.90
23869;DHT22;12115;47.128;15.422;2023-10-08T13:09:19;19.80;99.90
23869;DHT22;12115;47.128;15.422;2023-10-08T13:11:48;19.80;99.90
23869;DHT22;12115;47.128;15.422;2023-10-08T13:14:18;19.80;99.90
23869;DHT22;12115;47.128;15.422;2023-10-08T13:16:46;19.80;99.90
23869;DHT22;12115;47.128;15.422;2023-10-08T13:19:17;19.80;99.90
23869;DHT22;12115;47.128;15.422;2023-10-08T13:21:47;19.80;99.90
23869;DHT22;12115;47.128;15.422;2023-10-08T13:24:20;19.80;99.90
23869;DHT22;12115;47.128;15.422;2023-10-08T13:26:51;19.90;99.90
23869;DHT22;12115;47.128;15.422;2023-10-08T13:29:20;19.90;99.90
23869;DHT22;12115;47.128;15.422;2023-10-08T13:31:49;20.00;99.90
23869;DHT22;12115;47.128;15.422;2023-10-08T13:34:18;20.00;99.90
23869;DHT22;12115;47.128;15.422;2023-10-08T13:36:45;20.00;99.90
23869;DHT22;12115;47.128;15.422;2023-10-08T13:39:17;20.00;99.90
23869;DHT22;12115;47.128;15.422;2023-10-08T13:41:49;20.00;99.90
23869;DHT22;12115;47.128;15.422;2023-10-08T13:44:20;20.00;99.90
23869;DHT22;12115;47.128;15.422;2023-10-08T13:46:58;20.00;99.90
23869;DHT22;12115;47.128;15.422;2023-10-08T13:49:28;20.10;99.90
23869;DHT22;12115;47.128;15.422;2023-10-08T13:52:00;20.10;99.90
23869;DHT22;12115;47.128;15.422;2023-10-08T13:54:29;20.10;99.90
23869;DHT22;12115;47.128;15.422;2023-10-08T13:56:58;20.00;99.90
23869;DHT22;12115;47.128;15.422;2023-10-08T13:59:27;20.00;99.90
23869;DHT22;12115;47.128;15.422;2023-10-08T14:02:00;20.00;99.90
23869;DHT22;12115;47.128;15.422;2023-10-08T14:04:30;20.00;99.90
23869;DHT22;12115;47.128;15.422;2023-10-08T14:07:03;20.00;99.90
23869;DHT22;12115;47.128;15.422;2023-10-08T14:09:32;20.00;99.90
23869;DHT22;12115;47.128;15.422;2023-10-08T14:12:05;20.00;99.90
23869;DHT22;12115;47.128;15.422;2023-10-08T14:14:38;20.00;99.90
23869;DHT22;12115;47.128;15.422;2023-10-08T14:17:12;20.00;99.90
23869;DHT22;12115;47.128;15.422;2023-10-08T14:19:44;19.90;99.90
23869;DHT22;12115;47.128;15.422;2023-10-08T14:22:20;19.90;99.90
23869;DHT22;12115;47.128;15.422;2023-10-08T14:24:50;19.90;99.90
23869;DHT22;12115;47.128;15.422;2023-10-08T14:27:29;19.90;99.90
23869;DHT22;12115;47.128;15.422;2023-10-08T14:30:01;19.90;99.90
23869;DHT22;12115;47.128;15.422;2023-10-08T14:32:33;19.80;99.90
23869;DHT22;12115;47.128;15.422;2023-10-08T14:35:03;19.80;99.90
23869;DHT22;12115;47.128;15.422;2023-10-08T14:37:50;19.80;99.90
23869;DHT22;12115;47.128;15.422;2023-10-08T14:40:37;19.70;99.90
23869;DHT22;12115;47.128;15.422;2023-10-08T14:43:24;19.70;99.90
23869;DHT22;12115;47.128;15.422;2023-10-08T14:45:53;19.70;99.90
23869;DHT22;12115;47.128;15.422;2023-10-08T14:48:27;19.60;99.90
23869;DHT22;12115;47.128;15.422;2023-10-08T14:50:57;19.70;99.90
23869;DHT22;12115;47.128;15.422;2023-10-08T14:53:29;19.70;99.90
23869;DHT22;12115;47.128;15.422;2023-10-08T14:56:03;19.70;99.90
23869;DHT22;12115;47.128;15.422;2023-10-08T14:58:31;19.60;99.90
23869;DHT22;12115;47.128;15.422;2023-10-08T15:01:01;19.30;99.90
23869;DHT22;12115;47.128;15.422;2023-10-08T15:03:29;19.20;99.90
23869;DHT22;12115;47.128;15.422;2023-10-08T15:05:59;18.90;99.90
23869;DHT22;12115;47.128;15.422;2023-10-08T15:08:31;18.80;99.90
23869;DHT22;12115;47.128;15.422;2023-10-08T15:11:00;18.40;99.90
23869;DHT22;12115;47.128;15.422;2023-10-08T15:13:31;18.20;99.90
23869;DHT22;12115;47.128;15.422;2023-10-08T15:16:04;18.00;99.90
23869;DHT22;12115;47.128;15.422;2023-10-08T15:18:33;17.90;99.90
23869;DHT22;12115;47.128;15.422;2023-10-08T15:21:10;17.80;99.90
23869;DHT22;12115;47.128;15.422;2023-10-08T15:23:40;17.60;99.90
23869;DHT22;12115;47.128;15.422;2023-10-08T15:26:08;17.60;99.90
23869;DHT22;12115;47.128;15.422;2023-10-08T15:28:40;17.60;99.90
23869;DHT22;12115;47.128;15.422;2023-10-08T15:31:08;17.40;99.90
23869;DHT22;12115;47.128;15.422;2023-10-08T15:33:37;17.20;99.90
23869;DHT22;12115;47.128;15.422;2023-10-08T15:36:06;17.10;99.90
23869;DHT22;12115;47.128;15.422;2023-10-08T15:38:35;17.10;99.90
23869;DHT22;12115;47.128;15.422;2023-10-08T15:41:04;16.90;99.90
23869;DHT22;12115;47.128;15.422;2023-10-08T15:43:33;16.80;99.90
23869;DHT22;12115;47.128;15.422;2023-10-08T15:46:02;16.70;99.90
23869;DHT22;12115;47.128;15.422;2023-10-08T15:48:33;16.60;99.90
23869;DHT22;12115;47.128;15.422;2023-10-08T15:51:02;16.50;99.90
23869;DHT22;12115;47.128;15.422;2023-10-08T15:53:31;16.50;99.90
23869;DHT22;12115;47.128;15.422;2023-10-08T15:56:00;16.40;99.90
23869;DHT22;12115;47.128;15.422;2023-10-08T15:58:29;16.40;99.90
23869;DHT22;12115;47.128;15.422;2023-10-08T16:00:58;16.40;99.90
23869;DHT22;12115;47.128;15.422;2023-10-08T16:03:27;16.30;99.90
23869;DHT22;12115;47.128;15.422;2023-10-08T16:05:58;16.30;99.90
23869;DHT22;12115;47.128;15.422;2023-10-08T16:08:27;16.10;99.90
23869;DHT22;12115;47.128;15.422;2023-10-08T16:10:56;16.00;99.90
23869;DHT22;12115;47.128;15.422;2023-10-08T16:13:24;16.00;99.90
23869;DHT22;12115;47.128;15.422;2023-10-08T16:15:53;16.00;99.90
23869;DHT22;12115;47.128;15.422;2023-10-08T16:18:22;15.90;99.90
23869;DHT22;12115;47.128;15.422;2023-10-08T16:20:50;15.90;99.90
23869;DHT22;12115;47.128;15.422;2023-10-08T16:23:20;15.90;99.90